createdAt,value
2022-08-17T00:01:27.346Z,10.10
2022-08-17T00:03:54.742Z,9.10
2022-08-17T00:06:31.975Z,8.43
2022-08-17T00:09:01.091Z,8.00
2022-08-17T00:11:34.457Z,9.30
2022-08-17T00:14:05.589Z,8.60
2022-08-17T00:16:55.977Z,8.50
2022-08-17T00:19:24.382Z,10.83
2022-08-17T00:22:28.750Z,9.30
2022-08-17T00:24:39.347Z,9.23
2022-08-17T00:27:05.736Z,8.60
2022-08-17T00:29:32.102Z,9.10
2022-08-17T00:31:58.501Z,8.20
2022-08-17T00:34:25.225Z,8.97
2022-08-17T00:36:54.238Z,9.27
2022-08-17T00:39:20.622Z,13.70
2022-08-17T00:41:47.655Z,8.00
2022-08-17T00:44:15.476Z,9.70
2022-08-17T00:46:43.791Z,8.63
2022-08-17T00:49:13.160Z,8.33
2022-08-17T00:51:50.515Z,8.50
2022-08-17T00:54:22.090Z,8.70
2022-08-17T00:56:56.693Z,7.97
2022-08-17T00:59:27.040Z,8.30
2022-08-17T01:01:53.738Z,9.37
2022-08-17T01:04:22.290Z,8.40
2022-08-17T01:06:49.762Z,8.60
2022-08-17T01:09:17.810Z,8.60
2022-08-17T01:11:46.117Z,8.67
2022-08-17T01:14:13.217Z,9.33
2022-08-17T01:16:39.829Z,7.90
2022-08-17T01:19:28.766Z,7.53
2022-08-17T01:22:08.977Z,8.03
2022-08-17T01:24:41.134Z,7.90
2022-08-17T01:27:10.501Z,10.30
2022-08-17T01:29:39.679Z,7.90
2022-08-17T01:32:08.437Z,7.07
2022-08-17T01:34:35.129Z,7.87
2022-08-17T01:37:10.642Z,7.73
2022-08-17T01:39:47.897Z,7.80
2022-08-17T01:42:24.486Z,7.23
2022-08-17T01:44:55.330Z,8.43
2022-08-17T01:47:21.838Z,7.57
2022-08-17T01:49:48.758Z,8.17
2022-08-17T01:52:15.677Z,7.43
2022-08-17T01:54:45.207Z,10.70
2022-08-17T01:57:11.794Z,7.00
2022-08-17T01:59:38.125Z,7.43
2022-08-17T02:02:05.194Z,6.77
2022-08-17T02:04:32.132Z,9.20
2022-08-17T02:06:58.568Z,7.27
2022-08-17T02:09:29.841Z,9.20
2022-08-17T02:11:58.270Z,6.80
2022-08-17T02:14:25.139Z,6.83
2022-08-17T02:16:52.196Z,6.83
2022-08-17T02:19:19.034Z,7.27
2022-08-17T02:21:47.776Z,6.93
2022-08-17T02:25:00.058Z,7.90
2022-08-17T02:27:08.191Z,7.27
2022-08-17T02:29:34.567Z,6.63
2022-08-17T02:32:01.662Z,7.37
2022-08-17T02:34:28.166Z,8.13
2022-08-17T02:36:54.622Z,6.93
2022-08-17T02:39:21.590Z,6.70
2022-08-17T02:41:48.498Z,6.37
2022-08-17T02:44:14.957Z,7.63
2022-08-17T02:47:01.350Z,7.93
2022-08-17T02:49:27.761Z,6.87
2022-08-17T02:51:54.098Z,6.90
2022-08-17T02:54:41.713Z,7.17
2022-08-17T02:57:06.871Z,6.70
2022-08-17T02:59:33.201Z,8.20
2022-08-17T03:01:59.571Z,7.47
2022-08-17T03:04:26.062Z,7.17
2022-08-17T03:06:52.687Z,7.00
2022-08-17T03:09:19.044Z,6.10
2022-08-17T03:11:45.375Z,7.80
2022-08-17T03:14:12.402Z,8.23
2022-08-17T03:16:38.828Z,7.90
2022-08-17T03:19:05.726Z,6.83
2022-08-17T03:21:32.104Z,6.40
2022-08-17T03:23:58.600Z,8.80
2022-08-17T03:26:25.055Z,6.93
2022-08-17T03:28:56.060Z,6.87
2022-08-17T03:31:22.514Z,6.87
2022-08-17T03:33:48.993Z,8.60
2022-08-17T03:36:15.506Z,8.13
2022-08-17T03:38:41.873Z,6.57
2022-08-17T03:41:08.296Z,6.70
2022-08-17T03:43:34.803Z,7.33
2022-08-17T03:46:28.453Z,6.67
2022-08-17T03:49:34.202Z,6.87
2022-08-17T03:52:29.479Z,11.20
2022-08-17T03:55:14.220Z,7.87
2022-08-17T03:57:40.540Z,6.60
2022-08-17T04:00:07.327Z,8.17
2022-08-17T04:02:34.432Z,6.80
2022-08-17T04:05:01.563Z,7.43
2022-08-17T04:07:30.539Z,6.53
2022-08-17T04:09:57.892Z,7.27
2022-08-17T04:12:30.474Z,7.07
2022-08-17T04:14:57.102Z,7.13
2022-08-17T04:17:27.553Z,8.03
2022-08-17T04:19:55.140Z,6.73
2022-08-17T04:22:31.729Z,7.00
2022-08-17T04:25:09.887Z,7.50
2022-08-17T04:27:36.427Z,7.50
2022-08-17T04:30:06.814Z,5.80
2022-08-17T04:33:02.322Z,7.00
2022-08-17T04:35:22.556Z,7.27
2022-08-17T04:37:48.981Z,6.70
2022-08-17T04:40:34.741Z,6.67
2022-08-17T04:43:03.529Z,9.30
2022-08-17T04:45:32.346Z,7.20
2022-08-17T04:48:00.157Z,7.90
2022-08-17T04:50:26.933Z,6.53
2022-08-17T04:52:53.300Z,8.23
2022-08-17T04:55:19.779Z,9.77
2022-08-17T04:57:46.200Z,8.30
2022-08-17T05:00:13.138Z,6.77
2022-08-17T05:02:50.969Z,6.53
2022-08-17T05:05:29.701Z,9.20
2022-08-17T05:08:02.070Z,7.43
2022-08-17T05:10:31.781Z,7.23
2022-08-17T05:13:00.565Z,7.07
2022-08-17T05:15:28.350Z,6.67
2022-08-17T05:17:59.578Z,8.37
2022-08-17T05:20:26.157Z,8.43
2022-08-17T05:22:55.206Z,6.70
2022-08-17T05:25:25.001Z,7.03
2022-08-17T05:27:53.083Z,7.77
2022-08-17T05:30:19.661Z,6.63
2022-08-17T05:32:58.224Z,7.00
2022-08-17T05:35:27.119Z,6.80
2022-08-17T05:37:54.160Z,6.50
2022-08-17T05:40:23.949Z,7.13
2022-08-17T05:42:50.583Z,6.80
2022-08-17T05:45:46.042Z,8.20
2022-08-17T05:48:10.088Z,6.97
2022-08-17T05:50:55.615Z,6.43
2022-08-17T05:53:50.498Z,7.03
2022-08-17T05:56:54.543Z,7.20
2022-08-17T05:59:35.434Z,11.40
2022-08-17T06:02:16.074Z,8.13
2022-08-17T06:05:19.925Z,9.07
2022-08-17T06:07:52.370Z,8.10
2022-08-17T06:10:39.912Z,10.97
2022-08-17T06:13:38.537Z,7.80
2022-08-17T06:16:31.145Z,8.67
2022-08-17T06:19:06.390Z,7.33
2022-08-17T06:21:39.379Z,6.77
2022-08-17T06:24:21.317Z,7.00
2022-08-17T06:26:48.193Z,6.60
2022-08-17T06:29:37.074Z,9.03
2022-08-17T06:32:07.426Z,8.37
2022-08-17T06:34:34.066Z,10.17
2022-08-17T06:37:20.008Z,11.83
2022-08-17T06:39:58.532Z,10.53
2022-08-17T06:43:04.010Z,7.87
2022-08-17T06:45:34.526Z,10.33
2022-08-17T06:48:18.718Z,9.23
2022-08-17T06:50:53.329Z,10.27
2022-08-17T06:53:43.799Z,8.57
2022-08-17T06:56:13.652Z,10.20
2022-08-17T06:58:43.246Z,9.93
2022-08-17T07:01:14.853Z,10.93
2022-08-17T07:03:55.345Z,7.80
2022-08-17T07:06:26.463Z,12.47
2022-08-17T07:09:01.569Z,8.40
2022-08-17T07:11:33.950Z,10.20
2022-08-17T07:14:19.412Z,11.10
2022-08-17T07:16:50.373Z,8.57
2022-08-17T07:19:20.108Z,13.57
2022-08-17T07:22:05.370Z,7.67
2022-08-17T07:24:51.845Z,9.10
2022-08-17T07:27:31.132Z,6.87
2022-08-17T07:30:25.986Z,8.13
2022-08-17T07:33:01.385Z,11.60
2022-08-17T07:35:37.680Z,10.67
2022-08-17T07:38:29.003Z,9.13
2022-08-17T07:41:01.959Z,14.67
2022-08-17T07:43:31.171Z,11.43
2022-08-17T07:46:35.581Z,7.93
2022-08-17T07:49:07.335Z,12.67
2022-08-17T07:51:39.578Z,9.43
2022-08-17T07:54:15.149Z,8.60
2022-08-17T07:56:44.664Z,10.40
2022-08-17T07:59:23.592Z,11.40
2022-08-17T08:02:26.430Z,14.10
2022-08-17T08:05:16.228Z,9.30
2022-08-17T08:08:25.136Z,9.20
2022-08-17T08:11:15.224Z,11.97
2022-08-17T08:13:43.715Z,12.43
2022-08-17T08:16:26.016Z,12.23
2022-08-17T08:18:58.708Z,11.90
2022-08-17T08:21:51.327Z,13.77
2022-08-17T08:24:45.279Z,12.43
2022-08-17T08:27:27.140Z,12.50
2022-08-17T08:30:09.919Z,14.63
2022-08-17T08:33:14.552Z,12.77
2022-08-17T08:35:55.437Z,13.60
2022-08-17T08:38:28.216Z,15.43
2022-08-17T08:41:12.963Z,15.67
2022-08-17T08:43:52.252Z,14.53
2022-08-17T08:46:36.880Z,15.73
2022-08-17T08:49:45.095Z,14.23
2022-08-17T08:52:30.779Z,14.27
2022-08-17T08:55:08.217Z,14.70
2022-08-17T08:57:41.037Z,15.30
2022-08-17T09:00:15.571Z,16.37
2022-08-17T09:03:12.572Z,16.13
2022-08-17T09:06:02.804Z,14.83
2022-08-17T09:08:34.999Z,15.50
2022-08-17T09:11:23.241Z,16.17
2022-08-17T09:13:54.453Z,16.67
2022-08-17T09:16:46.329Z,15.13
2022-08-17T09:19:30.370Z,15.83
2022-08-17T09:22:36.168Z,17.87
2022-08-17T09:25:12.938Z,15.53
2022-08-17T09:27:54.712Z,16.63
2022-08-17T09:30:21.709Z,20.80
2022-08-17T09:32:56.362Z,15.00
2022-08-17T09:35:33.805Z,15.50
2022-08-17T09:38:32.789Z,16.67
2022-08-17T09:41:09.245Z,16.07
2022-08-17T09:43:51.503Z,16.60
2022-08-17T09:46:23.673Z,15.20
2022-08-17T09:48:57.483Z,15.70
2022-08-17T09:51:40.903Z,14.90
2022-08-17T09:54:40.300Z,17.00
2022-08-17T09:57:31.841Z,16.07
2022-08-17T10:00:16.046Z,20.33
2022-08-17T10:02:55.188Z,18.17
2022-08-17T10:05:27.304Z,17.00
2022-08-17T10:08:02.613Z,17.60
2022-08-17T10:10:56.891Z,16.80
2022-08-17T10:13:34.354Z,16.30
2022-08-17T10:16:15.993Z,17.37
2022-08-17T10:19:07.091Z,17.07
2022-08-17T10:22:00.836Z,16.03
2022-08-17T10:25:21.881Z,17.10
2022-08-17T10:27:55.170Z,16.57
2022-08-17T10:30:25.768Z,16.60
2022-08-17T10:32:55.135Z,17.33
2022-08-17T10:35:52.295Z,16.90
2022-08-17T10:38:46.158Z,18.33
2022-08-17T10:41:25.626Z,17.70
2022-08-17T10:44:38.973Z,17.43
2022-08-17T10:47:14.894Z,17.47
2022-08-17T10:49:53.641Z,18.73
2022-08-17T10:52:20.034Z,19.03
2022-08-17T10:54:48.962Z,20.67
2022-08-17T10:57:31.561Z,19.40
2022-08-17T10:59:59.946Z,19.53
2022-08-17T11:02:38.953Z,18.03
2022-08-17T11:05:27.456Z,20.53
2022-08-17T11:08:12.546Z,19.63
2022-08-17T11:10:38.904Z,21.00
2022-08-17T11:13:29.827Z,18.50
2022-08-17T11:16:17.354Z,20.13
2022-08-17T11:19:11.191Z,21.73
2022-08-17T11:21:55.160Z,19.93
2022-08-17T11:24:44.101Z,23.87
2022-08-17T11:27:21.878Z,24.10
2022-08-17T11:30:02.268Z,21.83
2022-08-17T11:32:54.683Z,22.47
2022-08-17T11:35:21.602Z,23.97
2022-08-17T11:37:53.819Z,22.37
2022-08-17T11:40:20.198Z,20.63
2022-08-17T11:42:54.197Z,20.80
2022-08-17T11:45:32.608Z,20.00
2022-08-17T11:49:00.132Z,22.37
2022-08-17T11:51:54.439Z,23.70
2022-08-17T11:54:34.441Z,22.27
2022-08-17T11:57:27.086Z,22.87
2022-08-17T12:00:11.802Z,21.53
2022-08-17T12:02:47.471Z,21.30
2022-08-17T12:05:17.219Z,22.90
2022-08-17T12:07:51.950Z,21.90
2022-08-17T12:10:24.105Z,22.47
2022-08-17T12:12:53.116Z,20.67
2022-08-17T12:15:31.213Z,20.73
2022-08-17T12:17:58.676Z,23.70
2022-08-17T12:20:33.271Z,22.20
2022-08-17T12:23:05.676Z,24.07
2022-08-17T12:25:42.305Z,23.00
2022-08-17T12:28:24.824Z,23.07
2022-08-17T12:30:52.338Z,22.53
2022-08-17T12:33:25.559Z,21.53
2022-08-17T12:36:03.181Z,23.60
2022-08-17T12:38:35.923Z,21.30
2022-08-17T12:41:24.561Z,23.47
2022-08-17T12:44:07.969Z,21.67
2022-08-17T12:46:51.887Z,23.07
2022-08-17T12:49:24.226Z,23.27
2022-08-17T12:51:53.678Z,21.70
2022-08-17T12:54:29.135Z,24.37
2022-08-17T12:56:55.900Z,25.93
2022-08-17T12:59:30.130Z,24.20
2022-08-17T13:01:57.512Z,25.67
2022-08-17T13:04:24.164Z,21.70
2022-08-17T13:06:59.634Z,26.67
2022-08-17T13:09:35.363Z,25.97
2022-08-17T13:12:06.850Z,28.40
2022-08-17T13:14:34.261Z,25.20
2022-08-17T13:17:07.354Z,24.47
2022-08-17T13:19:47.806Z,22.67
2022-08-17T13:22:14.291Z,24.70
2022-08-17T13:24:53.018Z,25.73
2022-08-17T13:27:21.326Z,25.90
2022-08-17T13:29:53.611Z,24.47
2022-08-17T13:32:23.070Z,22.67
2022-08-17T13:35:15.556Z,26.27
2022-08-17T13:37:40.983Z,24.03
2022-08-17T13:40:09.147Z,24.43
2022-08-17T13:42:51.700Z,25.50
2022-08-17T13:45:34.952Z,24.77
2022-08-17T13:48:21.947Z,24.07
2022-08-17T13:51:05.180Z,27.80
2022-08-17T13:53:37.406Z,28.53
2022-08-17T13:56:37.341Z,27.10
2022-08-17T13:59:11.201Z,23.67
2022-08-17T14:01:49.558Z,25.67
2022-08-17T14:04:23.124Z,26.80
2022-08-17T14:06:53.069Z,24.63
2022-08-17T14:09:24.201Z,24.93
2022-08-17T14:11:51.630Z,25.37
2022-08-17T14:14:19.089Z,27.90
2022-08-17T14:16:45.561Z,28.30
2022-08-17T14:19:14.133Z,26.73
2022-08-17T14:21:44.200Z,27.53
2022-08-17T14:24:32.059Z,26.70
2022-08-17T14:27:00.035Z,28.30
2022-08-17T14:29:28.613Z,26.97
2022-08-17T14:31:55.988Z,26.90
2022-08-17T14:34:23.896Z,26.73
2022-08-17T14:36:50.851Z,28.50
2022-08-17T14:39:18.649Z,27.47
2022-08-17T14:41:45.093Z,25.83
2022-08-17T14:44:12.423Z,23.67
2022-08-17T14:46:44.056Z,24.30
2022-08-17T14:49:12.825Z,21.50
2022-08-17T14:51:43.895Z,22.13
2022-08-17T14:54:28.861Z,20.93
2022-08-17T14:57:14.827Z,24.03
2022-08-17T14:59:46.980Z,22.80
2022-08-17T15:02:13.713Z,20.63
2022-08-17T15:04:45.399Z,19.60
2022-08-17T15:07:12.089Z,20.20
2022-08-17T15:09:38.891Z,19.87
2022-08-17T15:12:06.501Z,21.53
2022-08-17T15:14:34.869Z,20.30
2022-08-17T15:17:03.510Z,20.27
2022-08-17T15:19:30.009Z,23.90
2022-08-17T15:21:56.449Z,22.97
2022-08-17T15:24:22.802Z,21.87
2022-08-17T15:26:49.154Z,21.97
2022-08-17T15:29:15.530Z,21.40
2022-08-17T15:31:41.930Z,24.60
2022-08-17T15:34:08.357Z,26.37
2022-08-17T15:36:35.771Z,23.40
2022-08-17T15:39:03.066Z,25.00
2022-08-17T15:41:29.749Z,23.63
2022-08-17T15:43:56.345Z,23.77
2022-08-17T15:46:25.425Z,24.40
2022-08-17T15:48:56.462Z,27.03
2022-08-17T15:51:27.225Z,28.40
2022-08-17T15:53:56.509Z,29.83
2022-08-17T15:56:25.733Z,28.80
2022-08-17T15:58:54.675Z,27.10
2022-08-17T16:02:27.734Z,29.37
2022-08-17T16:04:29.532Z,28.90
2022-08-17T16:06:56.724Z,27.97
2022-08-17T16:09:23.108Z,27.63
2022-08-17T16:11:52.095Z,27.47
2022-08-17T16:14:22.303Z,25.10
2022-08-17T16:16:49.530Z,25.23
2022-08-17T16:19:16.145Z,24.67
2022-08-17T16:21:43.271Z,22.57
2022-08-17T16:24:12.843Z,23.93
2022-08-17T16:26:40.667Z,23.03
2022-08-17T16:29:07.760Z,22.13
2022-08-17T16:31:36.003Z,24.20
2022-08-17T16:34:16.306Z,23.37
2022-08-17T16:36:55.014Z,20.53
2022-08-17T16:39:24.468Z,22.67
2022-08-17T16:41:50.848Z,23.10
2022-08-17T16:44:21.682Z,22.03
2022-08-17T16:46:50.103Z,23.37
2022-08-17T16:49:35.244Z,20.40
2022-08-17T16:52:05.487Z,21.43
2022-08-17T16:54:32.513Z,21.27
2022-08-17T16:56:59.070Z,21.40
2022-08-17T16:59:30.999Z,21.50
2022-08-17T17:02:11.267Z,22.63
2022-08-17T17:04:44.824Z,22.67
2022-08-17T17:07:25.630Z,25.77
2022-08-17T17:09:55.290Z,23.77
2022-08-17T17:13:03.774Z,22.93
2022-08-17T17:15:10.255Z,24.23
2022-08-17T17:17:38.585Z,27.07
2022-08-17T17:20:29.118Z,26.43
2022-08-17T17:23:09.859Z,26.60
2022-08-17T17:26:00.084Z,26.10
2022-08-17T17:28:36.253Z,27.80
2022-08-17T17:31:14.823Z,27.10
2022-08-17T17:33:53.233Z,25.53
2022-08-17T17:36:45.616Z,22.80
2022-08-17T17:39:18.109Z,23.50
2022-08-17T17:41:51.394Z,22.97
2022-08-17T17:44:24.391Z,22.30
2022-08-17T17:46:54.656Z,22.70
2022-08-17T17:49:21.168Z,21.80
2022-08-17T17:52:09.177Z,22.53
2022-08-17T17:55:07.275Z,24.07
2022-08-17T17:57:46.840Z,22.50
2022-08-17T18:00:42.714Z,22.17
2022-08-17T18:03:09.271Z,22.00
2022-08-17T18:06:02.639Z,21.30
2022-08-17T18:08:53.148Z,23.90
2022-08-17T18:11:26.040Z,21.77
2022-08-17T18:14:20.074Z,21.97
2022-08-17T18:16:47.991Z,20.30
2022-08-17T18:19:19.732Z,23.37
2022-08-17T18:21:52.129Z,20.13
2022-08-17T18:24:32.945Z,22.03
2022-08-17T18:27:01.873Z,21.50
2022-08-17T18:29:45.533Z,21.10
2022-08-17T18:32:28.149Z,20.60
2022-08-17T18:35:01.805Z,21.97
2022-08-17T18:37:38.789Z,20.43
2022-08-17T18:40:17.356Z,21.53
2022-08-17T18:42:46.527Z,21.43
2022-08-17T18:45:13.504Z,21.30
2022-08-17T18:47:54.155Z,21.07
2022-08-17T18:50:27.309Z,19.37
2022-08-17T18:52:55.966Z,19.40
2022-08-17T18:55:28.883Z,19.43
2022-08-17T18:57:59.522Z,20.87
2022-08-17T19:00:36.821Z,21.43
2022-08-17T19:03:18.615Z,19.83
2022-08-17T19:05:49.911Z,21.47
2022-08-17T19:08:28.627Z,19.00
2022-08-17T19:11:09.401Z,19.40
2022-08-17T19:13:43.478Z,18.80
2022-08-17T19:16:20.010Z,20.60
2022-08-17T19:18:51.995Z,19.80
2022-08-17T19:21:25.073Z,20.40
2022-08-17T19:24:11.657Z,19.50
2022-08-17T19:26:54.672Z,19.80
2022-08-17T19:29:36.812Z,19.93
2022-08-17T19:32:04.166Z,18.67
2022-08-17T19:34:34.631Z,19.80
2022-08-17T19:37:40.437Z,20.67
2022-08-17T19:44:05.918Z,22.03
2022-08-17T19:46:59.560Z,18.67
2022-08-17T19:49:47.980Z,18.90
2022-08-17T19:52:37.346Z,19.23
2022-08-17T19:55:22.933Z,18.80
2022-08-17T19:58:01.853Z,18.10
2022-08-17T20:00:29.063Z,19.40
2022-08-17T20:03:05.612Z,17.53
2022-08-17T20:06:08.714Z,19.10
2022-08-17T20:08:26.366Z,18.43
2022-08-17T20:11:09.024Z,19.77
2022-08-17T20:13:43.556Z,17.83
2022-08-17T20:16:11.077Z,19.27
2022-08-17T20:18:58.621Z,21.20
2022-08-17T20:21:31.449Z,18.00
2022-08-17T20:24:17.670Z,18.47
2022-08-17T20:26:58.183Z,20.10
2022-08-17T20:29:31.948Z,18.87
2022-08-17T20:32:17.456Z,18.93
2022-08-17T20:34:46.355Z,19.93
2022-08-17T20:37:12.689Z,18.80
2022-08-17T20:39:52.302Z,19.53
2022-08-17T20:42:21.767Z,19.30
2022-08-17T20:44:54.233Z,18.87
2022-08-17T20:47:27.368Z,19.10
2022-08-17T20:50:15.043Z,19.17
2022-08-17T20:52:51.970Z,17.57
2022-08-17T20:55:51.678Z,18.73
2022-08-17T20:58:29.936Z,19.93
2022-08-17T21:00:57.644Z,18.53
2022-08-17T21:03:51.101Z,20.13
2022-08-17T21:06:21.649Z,18.93
2022-08-17T21:09:18.690Z,19.00
2022-08-17T21:12:04.233Z,18.90
2022-08-17T21:14:59.866Z,18.30
2022-08-17T21:17:29.642Z,19.00
2022-08-17T21:20:40.060Z,18.30
2022-08-17T21:23:16.192Z,18.27
2022-08-17T21:25:55.238Z,18.60
2022-08-17T21:28:29.958Z,19.77
2022-08-17T21:31:08.425Z,19.70
2022-08-17T21:33:38.537Z,20.13
2022-08-17T21:36:19.973Z,20.60
2022-08-17T21:38:56.994Z,20.07
2022-08-17T21:41:29.466Z,20.10
2022-08-17T21:44:21.868Z,19.27
2022-08-17T21:46:51.557Z,19.10
2022-08-17T21:49:21.201Z,20.53
2022-08-17T21:51:56.066Z,20.93
2022-08-17T21:54:36.844Z,20.00
2022-08-17T21:57:14.457Z,19.97
2022-08-17T21:59:43.554Z,20.40
2022-08-17T22:02:23.747Z,21.00
2022-08-17T22:05:10.005Z,23.70
2022-08-17T22:07:43.777Z,20.97
2022-08-17T22:10:30.649Z,21.90
2022-08-17T22:13:17.018Z,25.10
2022-08-17T22:15:47.059Z,31.03
2022-08-17T22:18:19.868Z,30.30
2022-08-17T22:20:51.829Z,29.63
2022-08-17T22:23:47.669Z,31.40
2022-08-17T22:26:16.632Z,32.27
2022-08-17T22:28:47.417Z,31.23
2022-08-17T22:31:17.144Z,33.53
2022-08-17T22:33:50.027Z,31.63
2022-08-17T22:36:22.920Z,31.67
2022-08-17T22:38:51.077Z,31.90
2022-08-17T22:41:26.554Z,31.10
2022-08-17T22:43:54.981Z,31.80
2022-08-17T22:46:24.008Z,29.57
2022-08-17T22:48:53.742Z,29.43
2022-08-17T22:51:23.813Z,27.43
2022-08-17T22:54:14.817Z,30.33
2022-08-17T22:57:18.858Z,30.90
2022-08-17T22:59:51.594Z,32.10
2022-08-17T23:02:24.589Z,32.50
2022-08-17T23:05:15.711Z,32.90
2022-08-17T23:07:44.375Z,33.13
2022-08-17T23:10:13.253Z,37.53
2022-08-17T23:12:39.924Z,36.60
2022-08-17T23:15:16.514Z,34.77
2022-08-17T23:17:43.182Z,35.33
2022-08-17T23:20:14.106Z,37.00
2022-08-17T23:22:51.537Z,34.80
2022-08-17T23:25:27.961Z,38.07
2022-08-17T23:27:55.514Z,36.00
2022-08-17T23:30:25.292Z,35.63
2022-08-17T23:32:54.200Z,38.53
2022-08-17T23:35:40.079Z,36.53
2022-08-17T23:38:09.665Z,34.40
2022-08-17T23:40:37.638Z,34.30
2022-08-17T23:43:11.499Z,32.43
2022-08-17T23:45:55.139Z,34.77
2022-08-17T23:48:34.973Z,35.73
2022-08-17T23:51:18.940Z,35.13
2022-08-17T23:53:49.966Z,36.57
2022-08-17T23:56:20.985Z,35.50
2022-08-17T23:58:47.361Z,38.70
